Terminal Aerodrome Forecast
Issued by NWS

Home | Current Version | Previous Version | Text Only | Print | Product List | Glossary On
Versions: 1 2 3 4 5 6 7 8 9 10 11 12 13 14 15 16 17 18 19 20 21 22 23 24 25 26
000
FTUS41 KCAR 272300
TAFBHB
TAF
KBHB 272334Z 2800/2824 26006KT P6SM SCT060
     FM280600 33006KT P6SM VCSH OVC040
     FM281000 34010KT P6SM BKN040
     FM281500 34012G20KT P6SM BKN050
      AMD LTD TO CLD VIS AND WIND=

USA.gov is the U.S. government's official web portal to all federal, state and local government web resources and services.